Bargaintown, New Jersey
Current Conditions -  °F | °C
As of 2:54 PM on Tuesday 21 Oct 2014 (Local Time) from KACY Reporting Station
Few Clouds Few Clouds  
Wind Chill: 69°   Ceiling: Unl
Heat Index: 69°   Visibility: 10mi
Dew Point: 51°   Wind: 6mph
Humidity: 53%   Direction: 200°SSW
Pressure: 29.8"   Gusts: NA
Location:  39.365°N, 74.6283°W
Report Text: KACY 211854Z 20005KT 10SM FEW050 21/11 A2980 RMK AO2 SLP092 T02060106
Loading
Personal Weather Stations






























Interactive Weather Map
Tropical Storm Tracking
New forecast layout! Learn more

10-Day Weather Forecast

Advertisements
Track Severe Weather on mobile